Terminal Aerodrome Forecast
Issued by NWS

Home | Current Version | Previous Version | Text Only | Print | Product List | Glossary On
Versions: 1 2 3 4 5 6 7 8 9 10 11 12 13 14 15 16 17 18 19 20 21 22 23 24
000
FTUS46 KPQR 260100 AAA
TAFONP
TAF AMD
KONP 260100Z 2601/2624 32010KT P6SM SCT028
      TEMPO 2601/2603 BKN028
     FM260700 30007KT P6SM -DZ OVC011
      TEMPO 2607/2611 2SM -DZ BR SCT003 OVC009
     FM262100 30011G20KT P6SM SCT015 BKN300=

USA.gov is the U.S. government's official web portal to all federal, state and local government web resources and services.